OPA Logo
 
ASOS:
At:2022.12.03 1620 UTC
Wind:
Viz: 10 mile(s)
Sky: clear
Temp: 24 F (-4 C)
DewP: 12 F (-11 C)
RH: 58%
Baro: 30.07 in.
ob: KBDN 031620Z AUTO 00000KT 10SM CLR M04/M11 A3007 RMK AO2

ASOS: KRDM
At:2022.12.03 1856 UTC
Wind:340° @ 4KT
Viz: 10 mile(s)
Sky: clear
Temp: 34.0 F (1.1 C)
DewP: 30 F (-1 C):1
RH: 16.0 F (-8.9 C)
Baro: 16.0 F (-8.9 C)
ob: KRDM 031856Z 34004KT 10SM CLR 01/M09 A3007 RMK AO2 SLP202 T00111089
Apache-SSL Logo

Valid HTML 4.01!

Local FAA Notices



15 May 2002 - FAA APPROVES 4 new antennas near St. Charles Hospital


2 May 2002, FAA Northwest Mountain Region Letter to Airmen 02-01

VFR Practice Approaches: Page 1, Page 2, Page 3, Page 4.


11 Apr 2002 - FAA Public Notice, 4 new antennas near St. Charles Hospital



Web page by: gem@rellim.com